Time;durP1;ratioP1;P1;durP2;ratioP2;P2;SDS_P1;SDS_P2;PMS_P1;PMS_P2;Temp;Humidity;BMP_temperature;BMP_pressure;BME280_temperature;BME280_humidity;BME280_pressure;Samples;Min_cycle;Max_cycle;Signal;HPM_P1;HPM_P2
2021/07/14 00:00:08;;;;;;;11.13;7.13;;;;;;;23.62;55.92;101037.50;5133783;27;20182;-61
2021/07/14 00:02:33;;;;;;;10.43;7.50;;;;;;;23.51;56.29;101034.66;5125253;27;20558;-60
2021/07/14 00:04:59;;;;;;;11.23;8.10;;;;;;;23.26;56.39;101001.69;5133556;27;20194;-60
2021/07/14 00:07:24;;;;;;;9.23;7.13;;;;;;;23.37;56.41;101034.84;5115199;27;20178;-61
2021/07/14 00:09:50;;;;;;;11.37;8.13;;;;;;;23.27;56.69;101039.97;5116397;27;20197;-60
2021/07/14 00:12:17;;;;;;;11.87;7.50;;;;;;;23.22;57.04;101034.28;5112741;28;20175;-60
2021/07/14 00:22:39;;;;;;;15.23;9.50;;;;;;;22.99;57.67;101021.34;5133543;27;20562;-60
2021/07/14 00:25:06;;;;;;;12.53;10.60;;;;;;;22.88;57.88;101030.56;5132981;27;20205;-60
2021/07/14 00:27:31;;;;;;;11.90;10.60;;;;;;;22.78;58.02;101020.75;5133019;27;20174;-61
2021/07/14 00:29:59;;;;;;;32.87;25.97;;;;;;;22.29;58.11;100963.97;5132373;27;20207;-60
2021/07/14 00:32:25;;;;;;;53.17;44.73;;;;;;;21.93;58.28;100917.59;5103291;28;20185;-61
2021/07/14 00:34:52;;;;;;;73.63;63.07;;;;;;;22.65;58.50;101036.59;5112661;28;20217;-61
2021/07/14 00:37:18;;;;;;;81.33;72.43;;;;;;;21.90;58.57;100932.69;5113780;27;20189;-61
2021/07/14 00:39:55;;;;;;;76.70;64.53;;;;;;;21.70;58.82;100913.06;5131934;27;20174;-60
2021/07/14 00:42:23;;;;;;;32.70;24.83;;;;;;;22.48;58.93;101052.69;5132716;27;20157;-61
2021/07/14 00:44:49;;;;;;;43.27;33.07;;;;;;;22.43;59.13;101059.84;5132617;27;20265;-61
2021/07/14 00:47:22;;;;;;;25.37;19.27;;;;;;;22.39;59.33;101064.16;5132482;27;20229;-60
2021/07/14 00:49:48;;;;;;;31.80;23.23;;;;;;;22.31;59.50;101061.00;5132221;27;20162;-61
2021/07/14 00:52:13;;;;;;;36.33;28.37;;;;;;;22.27;59.24;101068.19;5132514;27;20318;-60
2021/07/14 00:54:40;;;;;;;26.07;21.00;;;;;;;22.25;59.72;101063.03;5132835;27;20181;-60
2021/07/14 00:57:06;;;;;;;20.07;15.50;;;;;;;22.14;59.91;101067.81;5132663;27;20182;-60
2021/07/14 00:59:31;;;;;;;30.00;25.53;;;;;;;21.79;59.97;101042.63;5132143;27;20612;-60
2021/07/14 01:01:57;;;;;;;31.60;23.73;;;;;;;21.93;60.17;101078.44;5132562;27;20173;-60
2021/07/14 01:04:29;;;;;;;28.53;20.70;;;;;;;21.82;60.57;101072.69;5132264;27;20189;-61
2021/07/14 01:07:22;;;;;;;27.47;20.00;;;;;;;21.80;60.75;101080.84;5132245;27;20228;-60
2021/07/14 01:09:56;;;;;;;20.83;16.07;;;;;;;21.76;60.84;101073.91;5115742;27;20170;-60
2021/07/14 01:12:37;;;;;;;24.23;18.17;;;;;;;21.88;61.07;101086.81;5111738;28;20239;-60
2021/07/14 01:15:11;;;;;;;19.07;16.87;;;;;;;21.89;61.04;101089.16;5111533;28;20181;-61
2021/07/14 01:17:46;;;;;;;22.07;14.13;;;;;;;21.50;61.20;101027.97;5128213;27;20190;-60
2021/07/14 01:20:36;;;;;;;18.63;13.27;;;;;;;21.82;61.57;101081.16;5131996;27;20654;-60
2021/07/14 01:23:07;;;;;;;15.27;12.03;;;;;;;21.88;61.48;101081.97;5132202;27;20181;-60
2021/07/14 01:25:49;;;;;;;16.77;11.70;;;;;;;21.81;61.52;101067.53;5131982;27;20202;-60
2021/07/14 01:28:16;;;;;;;17.73;11.60;;;;;;;21.95;61.28;101086.41;5126652;27;20643;-61
2021/07/14 01:30:43;;;;;;;19.33;11.93;;;;;;;21.86;61.55;101067.56;5132117;27;20256;-60
2021/07/14 01:33:11;;;;;;;14.80;11.57;;;;;;;21.01;61.24;100940.84;5114094;27;20186;-61
2021/07/14 01:35:42;;;;;;;15.97;11.83;;;;;;;22.05;61.48;101094.16;5111567;28;20170;-60
2021/07/14 01:38:11;;;;;;;19.70;12.50;;;;;;;21.98;61.16;101074.88;5119711;27;20189;-61
2021/07/14 01:40:40;;;;;;;17.37;12.83;;;;;;;21.97;61.04;101089.47;5131556;27;20565;-60
2021/07/14 01:43:08;;;;;;;14.00;11.83;;;;;;;21.34;60.91;100978.59;5131769;27;20181;-60
2021/07/14 01:45:37;;;;;;;18.20;12.07;;;;;;;22.09;60.94;101097.53;5131676;27;20208;-60
2021/07/14 01:48:03;;;;;;;14.50;12.03;;;;;;;22.09;60.27;101103.19;5130873;27;20181;-60
2021/07/14 01:50:31;;;;;;;14.33;12.57;;;;;;;22.07;59.88;101121.91;5119445;27;20202;-60
2021/07/14 01:52:58;;;;;;;14.53;12.93;;;;;;;22.06;60.20;101101.34;5122628;27;20181;-60
2021/07/14 01:55:24;;;;;;;13.33;11.77;;;;;;;22.07;60.15;101104.97;5132051;27;20173;-61
2021/07/14 01:57:56;;;;;;;14.17;11.73;;;;;;;22.07;60.23;101111.41;5131066;27;20365;-61
2021/07/14 02:00:22;;;;;;;21.07;12.53;;;;;;;22.02;60.11;101112.13;5131496;27;20181;-60
2021/07/14 02:03:07;;;;;;;18.13;11.47;;;;;;;22.02;59.90;101103.66;5131697;28;20188;-60
2021/07/14 02:05:36;;;;;;;17.67;12.10;;;;;;;21.92;60.09;101124.06;5126809;27;20644;-60
2021/07/14 02:08:02;;;;;;;12.23;10.93;;;;;;;21.97;60.24;101115.66;5129656;28;20177;-61
2021/07/14 02:10:30;;;;;;;15.57;11.70;;;;;;;21.20;60.67;101021.00;5111102;28;20181;-60
2021/07/14 02:12:56;;;;;;;17.93;12.00;;;;;;;21.23;60.80;101014.38;5111339;28;20174;-60
2021/07/14 02:15:25;;;;;;;17.57;11.63;;;;;;;21.75;60.75;101094.91;5129884;28;20245;-61
2021/07/14 02:18:04;;;;;;;25.47;11.33;;;;;;;21.80;60.96;101102.66;5126107;28;20189;-60
2021/07/14 02:20:29;;;;;;;21.63;11.47;;;;;;;21.41;61.22;101043.03;5131375;28;20228;-60
2021/07/14 02:22:55;;;;;;;14.20;11.33;;;;;;;21.84;61.29;101117.31;5131577;28;20552;-60
2021/07/14 02:25:21;;;;;;;17.77;11.00;;;;;;;21.65;61.19;101088.63;5128548;28;20678;-60
2021/07/14 02:27:47;;;;;;;14.40;10.93;;;;;;;21.86;61.32;101118.34;5109764;28;20174;-60
2021/07/14 02:30:18;;;;;;;16.23;11.73;;;;;;;21.31;61.24;101035.19;5128484;28;20177;-60
2021/07/14 02:32:47;;;;;;;13.47;10.80;;;;;;;21.83;61.19;101104.47;5117088;28;20244;-60
2021/07/14 02:35:13;;;;;;;14.23;11.07;;;;;;;21.87;60.88;101108.63;5107642;28;20239;-60
2021/07/14 02:38:01;;;;;;;17.40;11.73;;;;;;;21.81;60.79;101109.84;5113594;28;20186;-61
2021/07/14 02:40:38;;;;;;;19.00;11.43;;;;;;;21.80;61.15;101111.88;5131115;28;20177;-60
2021/07/14 02:43:05;;;;;;;17.93;11.20;;;;;;;21.84;61.12;101117.31;5131775;28;20161;-61
2021/07/14 02:45:33;;;;;;;13.03;10.17;;;;;;;21.86;60.73;101115.53;5131061;28;20201;-60
2021/07/14 02:48:01;;;;;;;14.23;10.87;;;;;;;21.85;61.06;101116.81;5130318;28;20283;-60
2021/07/14 02:50:31;;;;;;;15.80;10.73;;;;;;;21.81;61.07;101116.25;5119184;28;20185;-61
2021/07/14 02:53:04;;;;;;;16.77;10.87;;;;;;;21.87;60.84;101130.44;5110627;28;20249;-61
2021/07/14 02:55:33;;;;;;;30.40;12.27;;;;;;;21.91;60.76;101134.56;5110690;28;20166;-61
2021/07/14 02:58:01;;;;;;;18.50;11.57;;;;;;;21.92;60.40;101130.50;5109919;28;20379;-60
2021/07/14 03:00:29;;;;;;;13.20;10.63;;;;;;;21.31;60.33;101049.28;5110589;28;20561;-61
2021/07/14 03:02:56;;;;;;;16.93;10.60;;;;;;;21.76;60.76;101127.50;5110709;28;20174;-60
2021/07/14 03:05:23;;;;;;;12.83;10.77;;;;;;;21.72;60.78;101132.56;5097236;28;20218;-60
2021/07/14 03:07:49;;;;;;;13.10;10.47;;;;;;;21.81;60.69;101143.72;5109710;28;20182;-60
2021/07/14 03:10:21;;;;;;;11.97;10.10;;;;;;;21.41;60.44;101092.97;5113533;28;20180;-60
2021/07/14 03:12:50;;;;;;;11.70;10.00;;;;;;;21.65;60.57;101147.84;5114369;28;20530;-60
2021/07/14 03:15:16;;;;;;;15.43;10.67;;;;;;;21.50;60.30;101132.31;5113413;28;20178;-60
2021/07/14 03:17:43;;;;;;;15.27;10.40;;;;;;;21.47;61.01;101134.06;5113313;28;20213;-60
2021/07/14 03:20:12;;;;;;;13.93;10.97;;;;;;;21.32;61.95;101118.50;5095157;28;20196;-60
2021/07/14 03:22:50;;;;;;;22.63;11.93;;;;;;;21.30;62.30;101119.00;5114142;28;20184;-60
2021/07/14 03:25:19;;;;;;;18.27;11.33;;;;;;;21.46;62.39;101141.00;5111403;28;20232;-61
2021/07/14 03:27:50;;;;;;;20.43;11.60;;;;;;;21.51;62.66;101133.84;5094061;28;20183;-60
2021/07/14 03:30:17;;;;;;;17.13;11.50;;;;;;;21.59;62.26;101141.38;5113587;28;20175;-60
2021/07/14 03:32:43;;;;;;;16.70;11.30;;;;;;;21.35;61.89;101092.16;5099836;28;20225;-60
2021/07/14 03:35:10;;;;;;;18.97;11.27;;;;;;;21.76;61.59;101131.09;5093365;28;20182;-60
2021/07/14 03:37:36;;;;;;;17.67;11.83;;;;;;;21.32;61.60;101056.47;5092027;28;20254;-60
2021/07/14 03:40:06;;;;;;;14.80;11.53;;;;;;;21.93;61.45;101148.97;5092893;28;20264;-60
2021/07/14 03:42:33;;;;;;;20.47;11.53;;;;;;;22.02;61.30;101148.81;5093325;28;20175;-60
2021/07/14 03:45:00;;;;;;;15.30;11.23;;;;;;;21.15;60.85;101028.13;5113146;28;20178;-61
2021/07/14 03:47:27;;;;;;;15.30;12.20;;;;;;;21.86;60.62;101146.56;5113591;28;20182;-61
2021/07/14 03:49:54;;;;;;;17.33;12.20;;;;;;;22.00;60.67;101178.81;5112774;28;20375;-60
2021/07/14 03:52:20;;;;;;;20.50;12.97;;;;;;;21.95;60.73;101176.69;5113148;28;20209;-60
2021/07/14 03:54:47;;;;;;;17.53;12.87;;;;;;;21.98;60.48;101176.47;5113418;28;20243;-61
2021/07/14 03:57:13;;;;;;;19.03;12.40;;;;;;;21.99;60.73;101194.94;5113358;28;20178;-61
2021/07/14 03:59:39;;;;;;;17.23;12.57;;;;;;;22.05;60.65;101192.94;5112589;28;20208;-60
2021/07/14 04:02:10;;;;;;;14.70;12.20;;;;;;;22.08;60.58;101200.44;5105784;28;20264;-61
2021/07/14 04:04:37;;;;;;;15.27;12.40;;;;;;;22.06;60.38;101190.91;5110153;28;20700;-60
2021/07/14 04:07:12;;;;;;;21.10;12.53;;;;;;;22.17;60.43;101203.09;5112916;28;20209;-61
2021/07/14 04:09:38;;;;;;;22.50;12.83;;;;;;;22.27;60.45;101209.34;5112156;28;20174;-60
2021/07/14 04:12:04;;;;;;;22.47;12.70;;;;;;;22.31;60.50;101209.91;5112920;28;20580;-61
2021/07/14 04:14:30;;;;;;;20.00;13.10;;;;;;;22.26;60.61;101204.97;5113090;28;20282;-61
2021/07/14 04:16:57;;;;;;;15.70;12.03;;;;;;;22.33;60.77;101202.47;5113065;28;20170;-60
2021/07/14 04:19:24;;;;;;;24.07;13.50;;;;;;;22.42;60.72;101213.59;5111946;28;20300;-60
2021/07/14 04:21:49;;;;;;;8.93;7.57;;;;;;;23.62;62.54;101187.44;5108142;28;20230;-63
2021/07/14 04:24:15;;;;;;;16.43;9.40;;;;;;;24.62;56.32;101208.28;5111086;28;20197;-65
2021/07/14 04:26:41;;;;;;;15.17;9.50;;;;;;;25.09;53.90;101201.53;5112050;28;20220;-60
2021/07/14 04:29:07;;;;;;;14.17;9.23;;;;;;;26.02;51.64;101209.72;5113173;28;20178;-63
2021/07/14 04:31:34;;;;;;;11.77;8.93;;;;;;;26.84;49.40;101208.34;5112092;28;20804;-63
2021/07/14 04:34:00;;;;;;;15.03;10.47;;;;;;;26.43;48.90;101144.31;5112665;28;20188;-62
2021/07/14 04:36:26;;;;;;;17.70;12.40;;;;;;;27.08;48.32;101211.19;5094211;28;20166;-63
2021/07/14 04:38:51;;;;;;;21.17;13.20;;;;;;;26.92;48.97;101205.69;5111639;28;20212;-63
2021/07/14 04:41:17;;;;;;;17.57;11.73;;;;;;;26.59;50.10;101195.38;5112435;28;20182;-63
2021/07/14 04:43:43;;;;;;;25.07;13.30;;;;;;;26.81;49.94;101231.38;5111990;28;20190;-62
2021/07/14 04:46:08;;;;;;;25.30;13.60;;;;;;;26.33;50.24;101182.91;5112099;28;20687;-63
2021/07/14 04:48:34;;;;;;;24.23;13.27;;;;;;;26.50;51.42;101237.53;5111586;28;20178;-62
2021/07/14 04:50:59;;;;;;;22.43;12.57;;;;;;;26.32;52.46;101232.50;5112096;28;20193;-65
2021/07/14 04:53:25;;;;;;;21.27;14.50;;;;;;;25.47;51.65;101093.59;5111120;28;20193;-65
2021/07/14 04:55:50;;;;;;;18.93;12.87;;;;;;;26.28;52.65;101226.31;5096394;28;20186;-65
2021/07/14 04:58:16;;;;;;;17.53;12.63;;;;;;;26.57;51.72;101232.06;5090902;28;20194;-65
2021/07/14 05:00:41;;;;;;;17.90;12.70;;;;;;;26.59;51.76;101234.41;5110623;28;20366;-65
2021/07/14 05:03:07;;;;;;;22.20;13.57;;;;;;;26.33;52.46;101240.50;5110671;28;20697;-65
2021/07/14 05:05:33;;;;;;;17.03;13.53;;;;;;;26.12;53.54;101242.19;5110301;28;20694;-65
2021/07/14 05:07:59;;;;;;;22.73;15.43;;;;;;;25.33;54.28;101128.75;5107810;28;20190;-65
2021/07/14 05:10:28;;;;;;;23.20;14.27;;;;;;;26.35;53.21;101229.38;5096129;28;20710;-65
2021/07/14 05:12:55;;;;;;;23.57;13.70;;;;;;;26.86;51.93;101230.56;5103966;28;20193;-65
2021/07/14 05:15:20;;;;;;;17.13;13.73;;;;;;;27.44;50.10;101211.88;5110398;28;20307;-65
2021/07/14 05:17:46;;;;;;;18.67;12.10;;;;;;;27.56;50.30;101233.19;5110445;28;20265;-65
2021/07/14 05:20:12;;;;;;;18.37;12.87;;;;;;;27.80;49.49;101228.25;5110443;28;20233;-65
2021/07/14 05:22:37;;;;;;;25.33;12.40;;;;;;;28.14;48.67;101228.59;5111098;28;20174;-65
2021/07/14 05:25:07;;;;;;;19.30;12.20;;;;;;;28.33;48.38;101224.41;5110347;28;20182;-65
2021/07/14 05:27:33;;;;;;;20.50;12.40;;;;;;;27.87;47.54;101122.25;5109928;28;20212;-65
2021/07/14 05:29:59;;;;;;;18.17;11.90;;;;;;;28.86;46.94;101242.50;5107082;28;20703;-65
2021/07/14 05:32:25;;;;;;;18.30;11.87;;;;;;;28.90;47.20;101242.91;5087106;28;20179;-65
2021/07/14 05:34:50;;;;;;;16.73;11.63;;;;;;;29.06;47.15;101241.88;5084869;28;20603;-68
2021/07/14 05:37:16;;;;;;;15.70;12.00;;;;;;;28.77;47.46;101205.81;5110373;28;20590;-62
2021/07/14 05:39:42;;;;;;;20.53;11.77;;;;;;;28.69;47.58;101176.38;5072658;28;20642;-62
2021/07/14 05:42:08;;;;;;;18.17;11.30;;;;;;;29.27;47.64;101235.00;5094052;28;20264;-64
2021/07/14 05:44:33;;;;;;;17.73;11.00;;;;;;;28.64;47.68;101149.50;5110668;28;20206;-60
2021/07/14 05:46:59;;;;;;;14.85;11.43;;;;;;;29.21;47.67;101242.13;5105790;28;20199;-60
2021/07/14 05:49:24;;;;;;;12.83;10.73;;;;;;;28.62;47.76;101174.19;5092893;28;20270;-59
2021/07/14 05:51:50;;;;;;;21.57;11.30;;;;;;;29.14;47.63;101226.44;5108553;28;20637;-59
2021/07/14 05:54:16;;;;;;;22.53;11.30;;;;;;;29.25;47.25;101231.94;5105314;28;20730;-59
2021/07/14 05:56:42;;;;;;;17.40;11.33;;;;;;;29.54;47.10;101255.78;5090122;28;20194;-59
2021/07/14 05:59:07;;;;;;;15.43;11.47;;;;;;;29.41;47.20;101256.53;5078729;28;20268;-63
2021/07/14 06:01:33;;;;;;;19.90;10.63;;;;;;;29.45;47.28;101250.50;5071814;28;20210;-62
2021/07/14 06:04:00;;;;;;;17.07;10.73;;;;;;;29.00;47.42;101193.50;5105481;28;20240;-66
2021/07/14 06:06:25;;;;;;;15.27;10.47;;;;;;;29.30;47.56;101256.75;5103824;28;20301;-66
2021/07/14 06:08:51;;;;;;;16.70;10.50;;;;;;;28.97;47.08;101188.88;5090368;28;20270;-66
2021/07/14 06:11:17;;;;;;;15.63;10.73;;;;;;;29.41;47.60;101262.25;5089630;28;20187;-66
2021/07/14 06:13:42;;;;;;;15.85;12.45;;;;;;;29.37;47.85;101258.19;5090051;28;20193;-66
2021/07/14 06:16:08;;;;;;;15.85;11.68;;;;;;;29.39;47.59;101262.03;5084784;28;20187;-66
2021/07/14 06:18:34;;;;;;;15.35;11.15;;;;;;;29.37;47.76;101273.22;5096029;28;20547;-66
2021/07/14 06:21:00;;;;;;;15.10;12.82;;;;;;;28.97;48.19;101203.13;5110480;28;20279;-66
2021/07/14 06:23:25;;;;;;;14.23;11.60;;;;;;;28.76;47.78;101175.75;5097126;28;20175;-66
2021/07/14 06:25:51;;;;;;;14.07;10.55;;;;;;;29.30;47.78;101262.47;5089822;28;20199;-65
2021/07/14 06:28:16;;;;;;;15.35;12.48;;;;;;;29.43;48.10;101268.16;5075634;28;20218;-60
2021/07/14 06:30:46;;;;;;;19.33;13.18;;;;;;;29.56;47.60;101273.94;5095183;28;20659;-61
2021/07/14 06:33:12;;;;;;;19.10;12.98;;;;;;;29.24;47.79;101223.91;5110976;28;20632;-61
2021/07/14 06:35:37;;;;;;;16.88;13.13;;;;;;;29.27;48.23;101274.97;5110097;28;20179;-61
2021/07/14 06:38:03;;;;;;;18.70;12.63;;;;;;;29.01;48.78;101269.22;5100520;28;20191;-60
2021/07/14 06:40:29;;;;;;;14.82;12.05;;;;;;;29.06;48.91;101268.34;5089372;28;20566;-61
2021/07/14 06:42:54;;;;;;;17.93;12.73;;;;;;;29.04;49.14;101270.97;5096621;28;20655;-61
2021/07/14 06:45:23;;;;;;;16.08;12.68;;;;;;;29.29;49.03;101260.94;5113755;28;20194;-61
2021/07/14 06:47:49;;;;;;;22.08;13.10;;;;;;;29.41;48.62;101259.38;5113938;28;20183;-61
2021/07/14 06:50:15;;;;;;;16.30;12.15;;;;;;;29.21;48.24;101216.44;5106205;28;20297;-61
2021/07/14 06:52:42;;;;;;;16.83;10.57;;;;;;;29.71;47.40;101264.78;5105079;28;20194;-61
2021/07/14 06:55:09;;;;;;;16.10;11.52;;;;;;;29.93;47.24;101267.94;5103964;28;20182;-61
2021/07/14 06:57:35;;;;;;;12.73;11.43;;;;;;;30.09;46.84;101261.09;5093439;28;20671;-61
2021/07/14 07:00:01;;;;;;;15.25;12.35;;;;;;;29.73;46.45;101185.78;5093108;28;20251;-61
2021/07/14 07:02:26;;;;;;;21.13;12.73;;;;;;;30.35;46.99;101266.03;5085665;28;20277;-61
2021/07/14 07:04:52;;;;;;;16.10;11.48;;;;;;;30.38;46.45;101262.81;5082481;28;21001;-61
2021/07/14 07:07:17;;;;;;;20.25;11.70;;;;;;;30.46;46.41;101255.06;5094628;28;20206;-61
2021/07/14 07:09:44;;;;;;;14.95;11.90;;;;;;;30.49;46.29;101241.75;5113978;28;20211;-61
2021/07/14 07:12:10;;;;;;;19.80;11.85;;;;;;;30.47;46.94;101256.63;5078016;28;20184;-61
2021/07/14 07:14:36;;;;;;;18.70;11.10;;;;;;;30.08;46.48;101218.78;5090530;28;20209;-61
2021/07/14 07:17:01;;;;;;;13.90;11.18;;;;;;;30.43;46.36;101247.63;5101921;28;20183;-61
2021/07/14 07:19:27;;;;;;;15.73;11.65;;;;;;;30.54;46.00;101240.84;5093121;28;20179;-60
2021/07/14 07:21:52;;;;;;;15.27;12.48;;;;;;;30.67;46.54;101243.69;5103241;28;20230;-61
2021/07/14 07:24:18;;;;;;;14.30;11.27;;;;;;;30.70;45.99;101243.34;5093365;28;20175;-61
2021/07/14 07:26:46;;;;;;;15.40;11.70;;;;;;;30.69;45.58;101241.81;5093002;28;20273;-61
2021/07/14 07:29:12;;;;;;;13.18;11.27;;;;;;;30.77;45.51;101241.88;5093112;28;20175;-61
2021/07/14 07:31:38;;;;;;;19.75;11.63;;;;;;;30.76;45.66;101232.50;5091765;28;20243;-61
2021/07/14 07:34:04;;;;;;;14.18;11.25;;;;;;;31.03;45.15;101233.13;5092961;28;20210;-61
2021/07/14 07:36:29;;;;;;;15.43;11.27;;;;;;;30.91;45.69;101240.47;5113268;28;20198;-61
2021/07/14 07:38:55;;;;;;;14.52;11.60;;;;;;;31.00;45.50;101245.69;5098680;28;20183;-61
2021/07/14 07:41:23;;;;;;;15.27;12.07;;;;;;;31.01;45.24;101242.28;5081862;28;20202;-61
2021/07/14 07:43:48;;;;;;;18.58;12.15;;;;;;;30.73;45.71;101242.22;5113023;28;20671;-61
2021/07/14 07:46:14;;;;;;;13.10;11.15;;;;;;;30.00;46.30;101150.09;5104680;28;20195;-60
2021/07/14 07:48:40;;;;;;;16.00;11.50;;;;;;;30.80;45.82;101240.75;5092879;28;20179;-61
2021/07/14 07:51:07;;;;;;;15.20;11.20;;;;;;;30.96;45.32;101236.72;5095950;28;20602;-61
2021/07/14 07:53:34;;;;;;;11.57;10.43;;;;;;;31.09;44.95;101231.66;5092224;28;20183;-61
2021/07/14 07:55:59;;;;;;;15.85;11.23;;;;;;;31.20;44.70;101222.00;5092288;28;20175;-61
2021/07/14 07:58:26;;;;;;;15.25;11.63;;;;;;;31.42;44.42;101225.03;5092255;28;20182;-61
2021/07/14 08:00:52;;;;;;;16.35;11.73;;;;;;;31.43;43.87;101225.81;5092355;28;20657;-60
2021/07/14 08:03:18;;;;;;;17.60;11.40;;;;;;;31.57;44.00;101219.38;5110693;28;20182;-61
2021/07/14 08:05:43;;;;;;;14.23;10.23;;;;;;;31.27;44.02;101173.38;5098219;28;20203;-61
2021/07/14 08:08:09;;;;;;;19.67;10.88;;;;;;;31.22;43.89;101148.53;5110790;28;20174;-61
2021/07/14 08:10:35;;;;;;;21.35;10.45;;;;;;;31.92;43.18;101229.31;5092274;28;20277;-61
2021/07/14 08:13:02;;;;;;;12.68;11.38;;;;;;;31.77;43.04;101229.25;5092807;28;20174;-61
2021/07/14 08:15:27;;;;;;;16.92;11.27;;;;;;;31.72;43.25;101227.28;5092258;28;20179;-61
2021/07/14 08:17:53;;;;;;;16.85;11.10;;;;;;;31.32;43.33;101151.66;5092355;28;20280;-61
2021/07/14 08:20:19;;;;;;;10.80;9.90;;;;;;;31.91;43.24;101222.84;5095745;28;20238;-60
2021/07/14 08:22:44;;;;;;;16.20;10.30;;;;;;;32.12;42.81;101229.22;5112128;28;20171;-61
2021/07/14 08:25:12;;;;;;;12.25;10.60;;;;;;;32.33;42.67;101232.75;5112003;28;20178;-61
2021/07/14 08:27:38;;;;;;;14.98;10.85;;;;;;;32.53;41.91;101216.69;5112164;28;20197;-61
2021/07/14 08:30:06;;;;;;;13.38;10.43;;;;;;;32.71;41.32;101216.34;5111696;28;20647;-61
2021/07/14 08:32:32;;;;;;;17.38;10.70;;;;;;;32.78;41.22;101218.50;5112550;28;20559;-61
2021/07/14 08:34:58;;;;;;;19.83;10.85;;;;;;;32.76;41.66;101226.84;5093641;28;20188;-61
2021/07/14 08:37:25;;;;;;;13.98;10.13;;;;;;;32.70;41.21;101203.31;5112223;28;20697;-65
2021/07/14 08:39:55;;;;;;;16.27;10.60;;;;;;;32.85;41.21;101219.84;5093733;28;20558;-64
2021/07/14 08:42:22;;;;;;;12.68;10.45;;;;;;;32.29;42.62;101114.75;5112467;28;20181;-65
2021/07/14 08:44:49;;;;;;;14.35;9.88;;;;;;;33.09;41.31;101217.13;5111980;28;20224;-64
2021/07/14 08:47:16;;;;;;;15.02;9.73;;;;;;;33.16;40.98;101213.47;5112072;28;20256;-64
2021/07/14 08:49:43;;;;;;;18.27;10.57;;;;;;;33.25;40.95;101215.00;5111975;28;20326;-65
2021/07/14 08:52:10;;;;;;;11.93;9.82;;;;;;;32.95;40.94;101215.03;5111895;28;20174;-65
2021/07/14 08:54:43;;;;;;;16.33;9.60;;;;;;;33.01;40.64;101190.53;5112075;28;20190;-65
2021/07/14 08:57:13;;;;;;;11.30;10.10;;;;;;;33.33;40.28;101215.78;5111727;28;20174;-65
2021/07/14 08:59:40;;;;;;;12.38;10.13;;;;;;;33.23;40.22;101209.06;5111430;28;20177;-64
2021/07/14 09:02:08;;;;;;;18.88;9.95;;;;;;;33.15;40.40;101197.59;5115778;27;20186;-66
2021/07/14 09:04:34;;;;;;;15.50;9.70;;;;;;;33.47;40.43;101217.84;5111633;28;20559;-64
2021/07/14 09:06:59;;;;;;;13.73;9.57;;;;;;;33.39;40.17;101188.38;5110752;28;20201;-64
2021/07/14 09:09:25;;;;;;;14.23;9.60;;;;;;;33.54;39.64;101204.81;5111551;28;20206;-64
2021/07/14 09:11:58;;;;;;;16.45;10.20;;;;;;;33.63;40.18;101207.84;5111037;28;20291;-67
2021/07/14 09:14:31;;;;;;;11.60;9.48;;;;;;;33.72;39.76;101198.59;5110247;28;20182;-64
2021/07/14 09:16:58;;;;;;;14.85;9.32;;;;;;;33.29;40.29;101141.50;5111186;28;20193;-65
2021/07/14 09:19:26;;;;;;;12.70;9.60;;;;;;;33.42;39.47;101114.63;5111040;28;20177;-66
2021/07/14 09:21:53;;;;;;;13.57;8.98;;;;;;;34.05;39.07;101187.94;5109340;28;20650;-66
2021/07/14 09:24:22;;;;;;;13.05;8.93;;;;;;;34.11;39.00;101191.34;5110373;28;20641;-66
2021/07/14 09:26:47;;;;;;;17.90;9.00;;;;;;;34.23;38.94;101193.19;5115489;27;20213;-64
2021/07/14 09:29:13;;;;;;;11.82;8.60;;;;;;;34.22;38.49;101188.03;5110626;28;20243;-65
2021/07/14 09:31:44;;;;;;;14.88;8.68;;;;;;;34.37;37.93;101199.47;5110964;28;20189;-67
2021/07/14 09:34:23;;;;;;;10.52;8.43;;;;;;;34.38;37.58;101193.13;5112077;28;20234;-67
2021/07/14 09:36:49;;;;;;;12.18;8.40;;;;;;;34.52;37.21;101191.50;5112117;28;20298;-68
2021/07/14 09:39:14;;;;;;;11.93;7.90;;;;;;;34.51;37.21;101192.84;5110494;28;20178;-66
2021/07/14 09:41:40;;;;;;;13.63;8.32;;;;;;;34.49;36.99;101180.41;5110772;28;20182;-66
2021/07/14 09:44:22;;;;;;;11.23;8.60;;;;;;;34.30;37.07;101180.16;5111269;28;20174;-66
2021/07/14 09:47:11;;;;;;;16.92;8.40;;;;;;;34.61;37.05;101175.69;5111274;28;20683;-66
2021/07/14 09:49:36;;;;;;;12.43;7.70;;;;;;;34.26;35.72;101081.94;5111615;28;20178;-67
2021/07/14 09:52:18;;;;;;;12.70;7.80;;;;;;;34.42;35.93;101152.44;5111115;28;20675;-67
2021/07/14 09:54:44;;;;;;;14.38;7.80;;;;;;;34.62;36.46;101163.59;5110853;28;20271;-66
2021/07/14 09:57:12;;;;;;;11.35;7.43;;;;;;;34.61;37.04;101169.94;5111161;28;20213;-67
2021/07/14 09:59:38;;;;;;;8.07;7.10;;;;;;;34.95;35.32;101170.81;5092260;28;20185;-66
2021/07/14 10:02:04;;;;;;;10.45;7.18;;;;;;;35.03;35.55;101167.84;5109463;28;20189;-68
2021/07/14 10:04:33;;;;;;;14.60;7.47;;;;;;;34.78;34.65;101095.16;5111138;28;20185;-65
2021/07/14 10:07:05;;;;;;;15.10;6.40;;;;;;;34.87;34.16;101098.13;5110255;28;20261;-63
2021/07/14 10:09:31;;;;;;;11.95;6.93;;;;;;;35.10;34.17;101159.13;5110208;28;20196;-62
2021/07/14 10:12:36;;;;;;;10.77;6.50;;;;;;;35.33;34.18;101165.44;5109856;28;20189;-62
2021/07/14 10:15:08;;;;;;;7.88;6.43;;;;;;;35.27;32.39;101161.28;5087239;28;20656;-67
2021/07/14 10:17:40;;;;;;;15.20;7.40;;;;;;;35.03;32.76;101154.22;5112140;28;20562;-66
2021/07/14 10:20:37;;;;;;;11.65;6.18;;;;;;;35.03;33.80;101145.59;5114995;28;20242;-66
2021/07/14 10:23:05;;;;;;;7.15;6.25;;;;;;;35.10;32.62;101141.06;5106497;28;20576;-64
2021/07/14 10:25:33;;;;;;;10.35;7.00;;;;;;;34.72;33.52;101103.25;5097635;28;20676;-67
2021/07/14 10:28:00;;;;;;;9.55;6.53;;;;;;;35.14;33.45;101136.44;5116092;28;20174;-67
2021/07/14 10:30:27;;;;;;;11.57;6.43;;;;;;;35.25;32.92;101140.94;5115659;28;20270;-67
2021/07/14 10:32:53;;;;;;;12.23;6.60;;;;;;;35.44;33.04;101141.09;5096817;28;20182;-65
2021/07/14 10:35:24;;;;;;;14.73;6.65;;;;;;;35.46;32.90;101132.63;5114398;28;20174;-65
2021/07/14 10:37:56;;;;;;;8.77;6.50;;;;;;;35.13;32.91;101079.41;5105729;28;20651;-76
2021/07/14 10:40:23;;;;;;;10.55;6.43;;;;;;;35.47;32.37;101128.41;5111585;28;20186;-62
2021/07/14 10:42:50;;;;;;;11.77;6.82;;;;;;;35.64;32.83;101131.25;5112792;28;20265;-63
2021/07/14 10:45:17;;;;;;;12.82;6.03;;;;;;;35.80;31.45;101130.47;5112792;28;20257;-63
2021/07/14 10:47:47;;;;;;;10.25;6.13;;;;;;;35.64;31.00;101047.63;5113522;28;20178;-63
2021/07/14 10:50:16;;;;;;;11.18;6.35;;;;;;;36.40;30.99;101123.06;5120067;27;20250;-63
2021/07/14 10:52:43;;;;;;;8.68;5.85;;;;;;;36.60;30.71;101119.59;5113006;28;20181;-63
2021/07/14 10:55:11;;;;;;;10.13;5.88;;;;;;;36.46;30.43;101114.88;5113487;28;20185;-62
2021/07/14 10:57:37;;;;;;;8.35;6.32;;;;;;;36.57;30.49;101120.84;5113741;28;20174;-63
2021/07/14 11:00:09;;;;;;;10.30;6.38;;;;;;;36.71;31.17;101112.53;5113371;28;20231;-63
2021/07/14 11:02:39;;;;;;;10.48;6.03;;;;;;;36.60;30.22;101127.53;5120748;27;20614;-63
2021/07/14 11:05:06;;;;;;;6.93;5.95;;;;;;;36.69;30.29;101103.72;5113246;28;20205;-63
2021/07/14 11:07:37;;;;;;;7.38;5.95;;;;;;;36.73;30.26;101104.78;5113265;28;20679;-62
2021/07/14 11:10:26;;;;;;;13.88;6.35;;;;;;;36.97;30.09;101092.22;5112907;28;20185;-63
2021/07/14 11:12:52;;;;;;;9.45;6.00;;;;;;;36.67;29.34;101008.25;5113140;28;20648;-62
2021/07/14 11:15:28;;;;;;;9.20;6.28;;;;;;;37.06;29.30;101070.47;5113271;28;20186;-63
2021/07/14 11:17:53;;;;;;;9.43;6.03;;;;;;;36.49;29.08;101006.84;5112875;28;20181;-63
2021/07/14 11:20:19;;;;;;;16.10;6.63;;;;;;;37.16;28.75;101088.59;5112811;28;20240;-63
2021/07/14 11:22:49;;;;;;;8.68;6.22;;;;;;;36.98;29.10;101090.06;5113087;28;20170;-63